sensor_id;sensor_type;location;lat;lon;timestamp;P1;durP1;ratioP1;P2;durP2;ratioP2
66609;SDS011;53468;48.276;14.416;2023-04-06T00:01:13;7.00;;;3.15;;
66609;SDS011;53468;48.276;14.416;2023-04-06T00:06:18;6.30;;;3.00;;
66609;SDS011;53468;48.276;14.416;2023-04-06T00:11:25;6.13;;;3.40;;
66609;SDS011;53468;48.276;14.416;2023-04-06T00:16:34;5.28;;;2.90;;
66609;SDS011;53468;48.276;14.416;2023-04-06T00:21:40;5.45;;;3.38;;
66609;SDS011;53468;48.276;14.416;2023-04-06T00:26:49;5.38;;;3.33;;
66609;SDS011;53468;48.276;14.416;2023-04-06T00:31:57;5.18;;;2.63;;
66609;SDS011;53468;48.276;14.416;2023-04-06T00:37:03;10.55;;;3.75;;
66609;SDS011;53468;48.276;14.416;2023-04-06T00:42:33;5.93;;;3.85;;
66609;SDS011;53468;48.276;14.416;2023-04-06T00:47:40;7.00;;;3.05;;
66609;SDS011;53468;48.276;14.416;2023-04-06T00:52:48;5.97;;;2.75;;
66609;SDS011;53468;48.276;14.416;2023-04-06T00:57:59;8.55;;;3.30;;
66609;SDS011;53468;48.276;14.416;2023-04-06T01:03:30;8.48;;;3.67;;
66609;SDS011;53468;48.276;14.416;2023-04-06T01:08:43;5.80;;;3.53;;
66609;SDS011;53468;48.276;14.416;2023-04-06T01:14:14;12.15;;;3.90;;
66609;SDS011;53468;48.276;14.416;2023-04-06T01:19:22;7.43;;;3.00;;
66609;SDS011;53468;48.276;14.416;2023-04-06T01:24:38;9.68;;;4.63;;
66609;SDS011;53468;48.276;14.416;2023-04-06T01:29:45;6.40;;;4.00;;
66609;SDS011;53468;48.276;14.416;2023-04-06T01:34:49;6.28;;;3.25;;
66609;SDS011;53468;48.276;14.416;2023-04-06T01:40:00;5.05;;;3.20;;
66609;SDS011;53468;48.276;14.416;2023-04-06T01:45:08;5.63;;;2.67;;
66609;SDS011;53468;48.276;14.416;2023-04-06T01:56:09;5.72;;;3.58;;
66609;SDS011;53468;48.276;14.416;2023-04-06T02:01:36;7.63;;;3.42;;
66609;SDS011;53468;48.276;14.416;2023-04-06T02:06:41;7.78;;;3.92;;
66609;SDS011;53468;48.276;14.416;2023-04-06T02:11:52;6.13;;;3.15;;
66609;SDS011;53468;48.276;14.416;2023-04-06T02:17:01;4.45;;;3.35;;
66609;SDS011;53468;48.276;14.416;2023-04-06T02:22:10;6.47;;;4.30;;
66609;SDS011;53468;48.276;14.416;2023-04-06T02:27:20;6.10;;;3.35;;
66609;SDS011;53468;48.276;14.416;2023-04-06T02:32:28;5.78;;;3.50;;
66609;SDS011;53468;48.276;14.416;2023-04-06T02:37:33;7.60;;;3.78;;
66609;SDS011;53468;48.276;14.416;2023-04-06T02:42:56;6.07;;;3.13;;
66609;SDS011;53468;48.276;14.416;2023-04-06T02:48:07;7.85;;;3.35;;
66609;SDS011;53468;48.276;14.416;2023-04-06T02:53:11;5.03;;;3.25;;
66609;SDS011;53468;48.276;14.416;2023-04-06T02:58:37;8.00;;;3.83;;
66609;SDS011;53468;48.276;14.416;2023-04-06T03:03:43;5.47;;;3.42;;
66609;SDS011;53468;48.276;14.416;2023-04-06T03:08:52;8.38;;;3.90;;
66609;SDS011;53468;48.276;14.416;2023-04-06T03:14:03;4.40;;;2.67;;
66609;SDS011;53468;48.276;14.416;2023-04-06T03:19:10;7.45;;;3.30;;
66609;SDS011;53468;48.276;14.416;2023-04-06T03:24:15;5.57;;;3.20;;
66609;SDS011;53468;48.276;14.416;2023-04-06T03:29:25;8.27;;;3.90;;
66609;SDS011;53468;48.276;14.416;2023-04-06T03:34:31;8.68;;;4.32;;
66609;SDS011;53468;48.276;14.416;2023-04-06T03:39:37;7.00;;;3.70;;
66609;SDS011;53468;48.276;14.416;2023-04-06T03:44:46;6.00;;;3.85;;
66609;SDS011;53468;48.276;14.416;2023-04-06T03:49:54;8.43;;;3.95;;
66609;SDS011;53468;48.276;14.416;2023-04-06T03:55:06;8.25;;;4.32;;
66609;SDS011;53468;48.276;14.416;2023-04-06T04:00:16;9.32;;;5.05;;
66609;SDS011;53468;48.276;14.416;2023-04-06T04:05:21;8.23;;;4.70;;
66609;SDS011;53468;48.276;14.416;2023-04-06T04:10:30;8.98;;;4.35;;
66609;SDS011;53468;48.276;14.416;2023-04-06T04:15:52;8.98;;;4.43;;
66609;SDS011;53468;48.276;14.416;2023-04-06T04:26:17;6.85;;;3.47;;
66609;SDS011;53468;48.276;14.416;2023-04-06T04:31:39;9.57;;;3.95;;
66609;SDS011;53468;48.276;14.416;2023-04-06T04:36:59;7.72;;;3.95;;
66609;SDS011;53468;48.276;14.416;2023-04-06T04:42:16;7.35;;;4.13;;
66609;SDS011;53468;48.276;14.416;2023-04-06T04:47:35;6.90;;;4.13;;
66609;SDS011;53468;48.276;14.416;2023-04-06T04:52:43;8.07;;;4.30;;
66609;SDS011;53468;48.276;14.416;2023-04-06T05:09:47;8.90;;;5.63;;
66609;SDS011;53468;48.276;14.416;2023-04-06T05:14:53;6.70;;;5.03;;
66609;SDS011;53468;48.276;14.416;2023-04-06T05:19:59;10.23;;;5.38;;
66609;SDS011;53468;48.276;14.416;2023-04-06T05:25:06;8.45;;;4.95;;
66609;SDS011;53468;48.276;14.416;2023-04-06T05:30:12;11.93;;;5.68;;
66609;SDS011;53468;48.276;14.416;2023-04-06T05:35:18;12.32;;;6.57;;
66609;SDS011;53468;48.276;14.416;2023-04-06T05:40:25;9.75;;;6.13;;
66609;SDS011;53468;48.276;14.416;2023-04-06T05:45:29;15.57;;;7.57;;
66609;SDS011;53468;48.276;14.416;2023-04-06T05:50:38;10.95;;;6.43;;
66609;SDS011;53468;48.276;14.416;2023-04-06T05:55:44;10.35;;;4.80;;
66609;SDS011;53468;48.276;14.416;2023-04-06T06:00:50;10.57;;;5.22;;
66609;SDS011;53468;48.276;14.416;2023-04-06T06:06:00;9.02;;;5.18;;
66609;SDS011;53468;48.276;14.416;2023-04-06T06:11:08;9.82;;;5.75;;
66609;SDS011;53468;48.276;14.416;2023-04-06T06:16:26;7.82;;;5.13;;
66609;SDS011;53468;48.276;14.416;2023-04-06T06:21:31;8.98;;;5.10;;
66609;SDS011;53468;48.276;14.416;2023-04-06T06:26:41;9.55;;;4.95;;
66609;SDS011;53468;48.276;14.416;2023-04-06T06:31:46;6.70;;;4.25;;
66609;SDS011;53468;48.276;14.416;2023-04-06T06:36:50;7.85;;;4.68;;
66609;SDS011;53468;48.276;14.416;2023-04-06T06:41:58;9.88;;;5.10;;
66609;SDS011;53468;48.276;14.416;2023-04-06T06:47:04;7.22;;;4.45;;
66609;SDS011;53468;48.276;14.416;2023-04-06T06:52:08;9.00;;;5.57;;
66609;SDS011;53468;48.276;14.416;2023-04-06T06:57:14;18.23;;;5.63;;
66609;SDS011;53468;48.276;14.416;2023-04-06T07:02:18;9.93;;;5.85;;
66609;SDS011;53468;48.276;14.416;2023-04-06T07:07:22;15.55;;;6.10;;
66609;SDS011;53468;48.276;14.416;2023-04-06T07:12:29;16.23;;;6.00;;
66609;SDS011;53468;48.276;14.416;2023-04-06T07:17:35;13.23;;;6.75;;
66609;SDS011;53468;48.276;14.416;2023-04-06T07:22:42;14.50;;;6.88;;
66609;SDS011;53468;48.276;14.416;2023-04-06T07:27:50;9.18;;;6.32;;
66609;SDS011;53468;48.276;14.416;2023-04-06T07:32:55;10.45;;;6.15;;
66609;SDS011;53468;48.276;14.416;2023-04-06T07:38:01;10.48;;;6.00;;
66609;SDS011;53468;48.276;14.416;2023-04-06T07:43:08;9.25;;;5.82;;
66609;SDS011;53468;48.276;14.416;2023-04-06T07:48:34;16.52;;;7.82;;
66609;SDS011;53468;48.276;14.416;2023-04-06T07:53:40;14.20;;;6.45;;
66609;SDS011;53468;48.276;14.416;2023-04-06T07:58:51;9.70;;;5.53;;
66609;SDS011;53468;48.276;14.416;2023-04-06T08:03:57;11.68;;;6.18;;
66609;SDS011;53468;48.276;14.416;2023-04-06T08:09:27;8.95;;;4.97;;
66609;SDS011;53468;48.276;14.416;2023-04-06T08:14:36;11.18;;;6.00;;
66609;SDS011;53468;48.276;14.416;2023-04-06T08:19:46;10.43;;;5.95;;
66609;SDS011;53468;48.276;14.416;2023-04-06T08:24:52;12.33;;;5.67;;
66609;SDS011;53468;48.276;14.416;2023-04-06T08:30:11;7.88;;;5.75;;
66609;SDS011;53468;48.276;14.416;2023-04-06T08:35:39;14.50;;;6.55;;
66609;SDS011;53468;48.276;14.416;2023-04-06T08:41:04;10.32;;;6.28;;
66609;SDS011;53468;48.276;14.416;2023-04-06T08:46:53;11.98;;;5.97;;
66609;SDS011;53468;48.276;14.416;2023-04-06T08:58:28;16.42;;;6.40;;
66609;SDS011;53468;48.276;14.416;2023-04-06T09:04:42;9.38;;;6.63;;
66609;SDS011;53468;48.276;14.416;2023-04-06T09:10:02;18.15;;;6.57;;
66609;SDS011;53468;48.276;14.416;2023-04-06T09:15:34;9.70;;;5.93;;
66609;SDS011;53468;48.276;14.416;2023-04-06T09:26:15;9.38;;;5.35;;
66609;SDS011;53468;48.276;14.416;2023-04-06T09:31:30;12.82;;;5.13;;
66609;SDS011;53468;48.276;14.416;2023-04-06T09:36:41;6.00;;;4.20;;
66609;SDS011;53468;48.276;14.416;2023-04-06T09:41:54;4.80;;;3.60;;
66609;SDS011;53468;48.276;14.416;2023-04-06T09:47:03;8.13;;;4.10;;
66609;SDS011;53468;48.276;14.416;2023-04-06T09:52:13;9.32;;;3.65;;
66609;SDS011;53468;48.276;14.416;2023-04-06T09:57:35;8.15;;;4.05;;
66609;SDS011;53468;48.276;14.416;2023-04-06T10:02:49;8.55;;;4.47;;
66609;SDS011;53468;48.276;14.416;2023-04-06T10:45:52;6.10;;;3.53;;
66609;SDS011;53468;48.276;14.416;2023-04-06T10:51:24;6.57;;;3.92;;
66609;SDS011;53468;48.276;14.416;2023-04-06T10:57:02;7.32;;;4.45;;
66609;SDS011;53468;48.276;14.416;2023-04-06T12:26:02;7.82;;;3.17;;
66609;SDS011;53468;48.276;14.416;2023-04-06T12:31:24;5.07;;;3.10;;
66609;SDS011;53468;48.276;14.416;2023-04-06T12:37:01;7.20;;;4.35;;
66609;SDS011;53468;48.276;14.416;2023-04-06T13:31:50;8.15;;;3.63;;
66609;SDS011;53468;48.276;14.416;2023-04-06T16:00:35;4.35;;;2.90;;
66609;SDS011;53468;48.276;14.416;2023-04-06T18:29:52;8.25;;;4.50;;
66609;SDS011;53468;48.276;14.416;2023-04-06T18:34:58;9.90;;;4.68;;
66609;SDS011;53468;48.276;14.416;2023-04-06T18:58:52;7.40;;;4.25;;
66609;SDS011;53468;48.276;14.416;2023-04-06T19:04:25;7.45;;;4.47;;
66609;SDS011;53468;48.276;14.416;2023-04-06T19:10:06;8.68;;;4.22;;
66609;SDS011;53468;48.276;14.416;2023-04-06T19:15:15;10.30;;;4.38;;
66609;SDS011;53468;48.276;14.416;2023-04-06T19:25:56;11.85;;;5.10;;
66609;SDS011;53468;48.276;14.416;2023-04-06T19:31:01;7.65;;;4.35;;
66609;SDS011;53468;48.276;14.416;2023-04-06T19:36:05;8.35;;;4.10;;
66609;SDS011;53468;48.276;14.416;2023-04-06T19:52:25;7.22;;;4.40;;
66609;SDS011;53468;48.276;14.416;2023-04-06T19:57:28;7.38;;;4.22;;
66609;SDS011;53468;48.276;14.416;2023-04-06T20:02:33;6.50;;;4.32;;
66609;SDS011;53468;48.276;14.416;2023-04-06T20:07:37;7.78;;;4.32;;
66609;SDS011;53468;48.276;14.416;2023-04-06T20:12:41;6.55;;;4.05;;
66609;SDS011;53468;48.276;14.416;2023-04-06T20:17:47;7.68;;;4.07;;
66609;SDS011;53468;48.276;14.416;2023-04-06T20:22:51;10.02;;;5.00;;
66609;SDS011;53468;48.276;14.416;2023-04-06T20:27:54;9.07;;;4.93;;
66609;SDS011;53468;48.276;14.416;2023-04-06T20:33:00;7.45;;;4.63;;
66609;SDS011;53468;48.276;14.416;2023-04-06T20:38:05;11.32;;;6.05;;
66609;SDS011;53468;48.276;14.416;2023-04-06T20:43:08;14.73;;;6.35;;
66609;SDS011;53468;48.276;14.416;2023-04-06T20:48:34;12.90;;;5.03;;
66609;SDS011;53468;48.276;14.416;2023-04-06T20:53:41;10.77;;;5.32;;
66609;SDS011;53468;48.276;14.416;2023-04-06T20:58:44;10.52;;;5.05;;
66609;SDS011;53468;48.276;14.416;2023-04-06T21:03:50;14.57;;;4.88;;
66609;SDS011;53468;48.276;14.416;2023-04-06T21:08:54;8.40;;;4.50;;
66609;SDS011;53468;48.276;14.416;2023-04-06T21:13:59;7.50;;;4.22;;
66609;SDS011;53468;48.276;14.416;2023-04-06T21:19:11;10.18;;;5.10;;
66609;SDS011;53468;48.276;14.416;2023-04-06T21:39:50;10.90;;;4.80;;
66609;SDS011;53468;48.276;14.416;2023-04-06T21:44:56;6.45;;;4.05;;
66609;SDS011;53468;48.276;14.416;2023-04-06T21:50:01;6.32;;;5.03;;
66609;SDS011;53468;48.276;14.416;2023-04-06T21:55:19;8.07;;;4.80;;
66609;SDS011;53468;48.276;14.416;2023-04-06T22:06:55;8.85;;;5.20;;
66609;SDS011;53468;48.276;14.416;2023-04-06T22:13:18;6.75;;;4.68;;
66609;SDS011;53468;48.276;14.416;2023-04-06T22:18:49;7.63;;;4.75;;
66609;SDS011;53468;48.276;14.416;2023-04-06T22:24:57;8.82;;;5.75;;
66609;SDS011;53468;48.276;14.416;2023-04-06T23:00:41;12.73;;;6.45;;
66609;SDS011;53468;48.276;14.416;2023-04-06T23:12:11;12.77;;;5.57;;
66609;SDS011;53468;48.276;14.416;2023-04-06T23:18:00;12.05;;;5.32;;
66609;SDS011;53468;48.276;14.416;2023-04-06T23:23:04;14.48;;;7.72;;
66609;SDS011;53468;48.276;14.416;2023-04-06T23:28:08;9.88;;;5.68;;
66609;SDS011;53468;48.276;14.416;2023-04-06T23:33:58;8.85;;;5.55;;
